createdAt,value
2019-06-10T00:01:34.481Z,100569.64
2019-06-10T00:04:05.162Z,100565.15
2019-06-10T00:06:31.160Z,100563.66
2019-06-10T00:08:58.393Z,100563.20
2019-06-10T00:11:25.992Z,100559.55
2019-06-10T00:13:53.191Z,100562.06
2019-06-10T00:16:20.879Z,100558.73
2019-06-10T00:18:50.848Z,100557.41
2019-06-10T00:21:17.550Z,100554.89
2019-06-10T00:23:44.824Z,100554.05
2019-06-10T00:26:12.696Z,100554.24
2019-06-10T00:28:41.886Z,100558.41
2019-06-10T00:31:11.310Z,100549.03
2019-06-10T00:33:38.193Z,100542.03
2019-06-10T00:36:07.485Z,100543.40
2019-06-10T00:38:34.749Z,100550.89
2019-06-10T00:41:05.275Z,100546.39
2019-06-10T00:43:31.295Z,100546.56
2019-06-10T00:45:58.490Z,100541.02
2019-06-10T00:48:29.135Z,100541.02
2019-06-10T00:50:57.045Z,100541.51
2019-06-10T00:53:24.254Z,100540.34
2019-06-10T00:55:51.916Z,100544.38
2019-06-10T00:58:21.455Z,100541.70
2019-06-10T01:00:48.361Z,100539.69
2019-06-10T01:03:15.932Z,100537.30
2019-06-10T01:05:43.607Z,100540.34
2019-06-10T01:08:14.030Z,100541.55
2019-06-10T01:10:43.836Z,100541.55
2019-06-10T01:13:11.727Z,100541.93
2019-06-10T01:15:38.394Z,100540.45
2019-06-10T01:18:05.627Z,100538.13
2019-06-10T01:20:32.669Z,100530.47
2019-06-10T01:23:01.555Z,100531.97
2019-06-10T01:25:31.085Z,100543.48
2019-06-10T01:28:00.503Z,100542.31
2019-06-10T01:30:27.542Z,100538.98
2019-06-10T01:32:55.172Z,100543.66
2019-06-10T01:35:22.360Z,100544.67
2019-06-10T01:37:51.876Z,100539.31
2019-06-10T01:40:20.907Z,100534.00
2019-06-10T01:42:50.579Z,100528.84
2019-06-10T01:45:17.544Z,100521.48
2019-06-10T01:47:44.638Z,100525.67
2019-06-10T01:50:15.625Z,100530.98
2019-06-10T01:52:41.599Z,100531.81
2019-06-10T01:55:12.205Z,100525.47
2019-06-10T01:57:38.375Z,100520.82
2019-06-10T02:00:12.021Z,100523.98
2019-06-10T02:02:35.473Z,100513.98
2019-06-10T02:05:02.765Z,100513.17
2019-06-10T02:07:31.797Z,100507.81
2019-06-10T02:10:01.076Z,100503.16
2019-06-10T02:12:28.054Z,100505.66
2019-06-10T02:14:55.250Z,100496.17
2019-06-10T02:17:23.824Z,100491.02
2019-06-10T02:19:52.194Z,100485.33
2019-06-10T02:22:23.847Z,100494.67
2019-06-10T02:24:50.653Z,100484.36
2019-06-10T02:27:19.541Z,100487.36
2019-06-10T02:29:47.357Z,100487.17
2019-06-10T02:32:20.772Z,100492.02
2019-06-10T02:35:01.337Z,100491.18
2019-06-10T02:37:17.008Z,100502.66
2019-06-10T02:39:43.931Z,100512.31
2019-06-10T02:42:30.692Z,100518.00
2019-06-10T02:44:57.915Z,100516.84
2019-06-10T02:47:32.106Z,100515.00
2019-06-10T02:50:02.447Z,100510.67
2019-06-10T02:52:32.201Z,100503.00
2019-06-10T02:54:53.525Z,100504.33
2019-06-10T02:57:28.822Z,100506.66
2019-06-10T02:59:50.167Z,100516.14
2019-06-10T03:02:18.282Z,100520.64
2019-06-10T03:04:46.473Z,100517.32
2019-06-10T03:07:15.787Z,100521.65
2019-06-10T03:09:42.998Z,100512.84
2019-06-10T03:12:12.212Z,100516.16
2019-06-10T03:14:42.136Z,100506.98
2019-06-10T03:17:12.670Z,100512.33
2019-06-10T03:19:49.515Z,100509.84
2019-06-10T03:22:09.105Z,100515.84
2019-06-10T03:24:36.283Z,100508.34
2019-06-10T03:27:03.930Z,100505.52
2019-06-10T03:29:32.733Z,100499.00
2019-06-10T03:32:04.502Z,100500.98
2019-06-10T03:34:36.320Z,100503.64
2019-06-10T03:36:58.387Z,100497.31
2019-06-10T03:39:27.351Z,100496.98
2019-06-10T03:41:54.877Z,100491.33
2019-06-10T03:44:24.840Z,100481.36
2019-06-10T03:46:52.345Z,100482.19
2019-06-10T03:49:21.309Z,100466.84
2019-06-10T03:51:52.950Z,100468.17
2019-06-10T03:54:24.425Z,100472.84
2019-06-10T03:56:51.978Z,100463.69
2019-06-10T03:59:19.257Z,100449.52
2019-06-10T04:01:46.776Z,100455.52
2019-06-10T04:04:13.947Z,100451.83
2019-06-10T04:06:44.188Z,100456.66
2019-06-10T04:09:12.074Z,100454.66
2019-06-10T04:11:39.497Z,100457.19
2019-06-10T04:14:06.658Z,100456.52
2019-06-10T04:16:33.803Z,100470.52
2019-06-10T04:19:02.506Z,100456.18
2019-06-10T04:21:29.934Z,100446.38
2019-06-10T04:23:57.120Z,100437.86
2019-06-10T04:26:25.754Z,100453.52
2019-06-10T04:28:53.480Z,100453.34
2019-06-10T04:31:23.027Z,100450.14
2019-06-10T04:33:52.252Z,100434.55
2019-06-10T04:36:18.827Z,100428.53
2019-06-10T04:38:45.903Z,100421.65
2019-06-10T04:41:13.118Z,100420.44
2019-06-10T04:43:42.949Z,100416.94
2019-06-10T04:46:09.469Z,100406.13
2019-06-10T04:48:36.658Z,100411.59
2019-06-10T04:51:04.085Z,100412.12
2019-06-10T04:53:32.967Z,100418.75
2019-06-10T04:56:02.701Z,100424.27
2019-06-10T04:58:30.329Z,100445.86
2019-06-10T05:00:58.479Z,100441.14
2019-06-10T05:03:26.821Z,100443.47
2019-06-10T05:05:54.720Z,100443.25
2019-06-10T05:08:23.918Z,100449.52
2019-06-10T05:10:52.929Z,100467.59
2019-06-10T05:13:21.842Z,100477.11
2019-06-10T05:15:49.246Z,100474.55
2019-06-10T05:18:16.426Z,100476.70
2019-06-10T05:20:54.068Z,100465.30
2019-06-10T05:23:13.048Z,100456.41
2019-06-10T05:25:42.643Z,100463.99
2019-06-10T05:28:09.257Z,100474.29
2019-06-10T05:30:36.416Z,100473.78
2019-06-10T05:33:03.472Z,100468.34
2019-06-10T05:35:31.598Z,100472.28
2019-06-10T05:38:02.232Z,100457.52
2019-06-10T05:40:29.385Z,100464.75
2019-06-10T05:42:56.677Z,100476.05
2019-06-10T05:45:25.886Z,100485.20
2019-06-10T05:47:53.153Z,100482.58
2019-06-10T05:50:22.496Z,100485.45
2019-06-10T05:52:51.992Z,100483.09
2019-06-10T05:55:18.943Z,100492.02
2019-06-10T05:57:46.119Z,100493.82
2019-06-10T06:00:15.145Z,100498.03
2019-06-10T06:02:43.237Z,100499.62
2019-06-10T06:05:12.896Z,100506.86
2019-06-10T06:07:42.151Z,100507.16
2019-06-10T06:10:09.668Z,100502.93
2019-06-10T06:12:37.871Z,100507.80
2019-06-10T06:15:05.565Z,100508.56
2019-06-10T06:17:35.106Z,100504.02
2019-06-10T06:20:02.878Z,100495.22
2019-06-10T06:22:34.041Z,100491.47
2019-06-10T06:24:59.842Z,100499.30
2019-06-10T06:27:28.690Z,100499.30
2019-06-10T06:29:56.035Z,100497.65
2019-06-10T06:32:23.715Z,100493.05
2019-06-10T06:34:52.688Z,100488.03
2019-06-10T06:37:20.294Z,100488.88
2019-06-10T06:39:47.587Z,100496.09
2019-06-10T06:42:14.864Z,100491.86
2019-06-10T06:44:43.334Z,100503.28
2019-06-10T06:47:13.055Z,100502.13
2019-06-10T06:49:39.885Z,100510.30
2019-06-10T06:52:07.049Z,100507.94
2019-06-10T06:54:36.107Z,100495.59
2019-06-10T06:57:03.694Z,100492.04
2019-06-10T06:59:33.807Z,100492.84
2019-06-10T07:02:00.021Z,100486.58
2019-06-10T07:04:27.238Z,100480.81
2019-06-10T07:06:55.707Z,100467.86
2019-06-10T07:09:23.751Z,100462.73
2019-06-10T07:11:52.958Z,100466.44
2019-06-10T07:14:20.212Z,100476.18
2019-06-10T07:16:47.503Z,100473.19
2019-06-10T07:19:23.256Z,100484.98
2019-06-10T07:22:08.628Z,100478.23
2019-06-10T07:24:23.155Z,100469.69
2019-06-10T07:27:57.318Z,100454.95
2019-06-10T07:30:36.867Z,100465.13
2019-06-10T07:33:04.020Z,100473.94
2019-06-10T07:35:32.990Z,100472.73
2019-06-10T07:38:02.815Z,100474.02
2019-06-10T07:40:29.609Z,100468.77
2019-06-10T07:42:58.353Z,100461.70
2019-06-10T07:45:25.960Z,100459.20
2019-06-10T07:47:54.181Z,100449.11
2019-06-10T07:50:22.728Z,100453.27
2019-06-10T07:52:50.031Z,100450.81
2019-06-10T07:55:17.391Z,100444.19
2019-06-10T07:57:45.696Z,100443.58
2019-06-10T08:00:15.155Z,100427.00
2019-06-10T08:02:46.110Z,100419.73
2019-06-10T08:05:15.297Z,100435.81
2019-06-10T08:07:45.117Z,100450.55
2019-06-10T08:10:13.287Z,100447.18
2019-06-10T08:12:48.415Z,100442.15
2019-06-10T08:15:28.952Z,100440.49
2019-06-10T08:18:04.522Z,100430.63
2019-06-10T08:20:47.721Z,100433.52
2019-06-10T08:23:17.119Z,100443.52
2019-06-10T08:25:51.013Z,100438.00
2019-06-10T08:28:14.897Z,100438.02
2019-06-10T08:30:46.113Z,100438.08
2019-06-10T08:33:16.454Z,100449.53
2019-06-10T08:35:53.266Z,100450.31
2019-06-10T08:38:13.208Z,100447.61
2019-06-10T08:40:41.137Z,100443.02
2019-06-10T08:43:09.670Z,100430.78
2019-06-10T08:45:36.975Z,100436.94
2019-06-10T08:48:04.664Z,100430.48
2019-06-10T08:50:33.653Z,100430.02
2019-06-10T08:53:13.925Z,100427.36
2019-06-10T08:55:33.517Z,100431.04
2019-06-10T08:58:02.778Z,100420.92
2019-06-10T09:00:30.462Z,100416.18
2019-06-10T09:02:58.201Z,100410.50
2019-06-10T09:05:25.445Z,100418.84
2019-06-10T09:07:54.494Z,100421.31
2019-06-10T09:10:22.776Z,100417.14
2019-06-10T09:12:54.188Z,100423.90
2019-06-10T09:15:19.938Z,100420.47
2019-06-10T09:17:49.573Z,100423.40
2019-06-10T09:20:16.805Z,100419.89
2019-06-10T09:22:48.552Z,100420.66
2019-06-10T09:25:15.206Z,100414.48
2019-06-10T09:27:44.973Z,100414.51
2019-06-10T09:30:13.522Z,100416.93
2019-06-10T09:32:42.679Z,100411.64
2019-06-10T09:35:12.599Z,100401.41
2019-06-10T09:37:39.985Z,100418.23
2019-06-10T09:40:12.337Z,100411.39
2019-06-10T09:42:41.569Z,100411.55
2019-06-10T09:45:09.938Z,100414.77
2019-06-10T09:47:37.816Z,100405.02
2019-06-10T09:50:06.768Z,100399.05
2019-06-10T09:52:34.085Z,100401.54
2019-06-10T09:55:02.670Z,100391.75
2019-06-10T09:57:32.181Z,100388.78
2019-06-10T09:59:59.568Z,100392.30
2019-06-10T10:02:26.759Z,100400.75
2019-06-10T10:04:58.265Z,100389.40
2019-06-10T10:07:23.315Z,100384.20
2019-06-10T10:09:56.880Z,100392.38
2019-06-10T10:12:22.770Z,100382.50
2019-06-10T10:14:56.347Z,100374.61
2019-06-10T10:17:23.829Z,100369.81
2019-06-10T10:19:56.861Z,100370.88
2019-06-10T10:22:24.579Z,100361.73
2019-06-10T10:24:55.152Z,100360.95
2019-06-10T10:27:23.375Z,100354.03
2019-06-10T10:29:55.062Z,100358.32
2019-06-10T10:32:22.502Z,100345.02
2019-06-10T10:34:50.250Z,100335.15
2019-06-10T10:37:18.798Z,100328.54
2019-06-10T10:39:46.667Z,100322.28
2019-06-10T10:42:13.946Z,100322.33
2019-06-10T10:44:44.369Z,100316.35
2019-06-10T10:47:12.446Z,100313.08
2019-06-10T10:49:39.868Z,100305.94
2019-06-10T10:52:09.411Z,100305.98
2019-06-10T10:54:37.038Z,100301.39
2019-06-10T10:57:04.377Z,100296.98
2019-06-10T10:59:33.327Z,100307.98
2019-06-10T11:02:02.347Z,100294.05
2019-06-10T11:04:32.840Z,100295.34
2019-06-10T11:07:01.175Z,100290.02
2019-06-10T11:09:29.411Z,100287.45
2019-06-10T11:11:58.393Z,100274.44
2019-06-10T11:14:28.071Z,100270.60
2019-06-10T11:16:58.475Z,100270.25
2019-06-10T11:19:25.561Z,100271.60
2019-06-10T11:21:53.857Z,100274.19
2019-06-10T11:24:33.565Z,100273.43
2019-06-10T11:26:54.515Z,100271.77
2019-06-10T11:29:20.375Z,100266.39
2019-06-10T11:31:48.983Z,100256.72
2019-06-10T11:34:19.658Z,100258.60
2019-06-10T11:36:47.981Z,100263.34
2019-06-10T11:39:15.909Z,100254.91
2019-06-10T11:41:43.786Z,100242.55
2019-06-10T11:44:11.192Z,100250.13
2019-06-10T11:46:38.417Z,100248.41
2019-06-10T11:49:05.921Z,100243.53
2019-06-10T11:51:33.294Z,100249.66
2019-06-10T11:54:03.212Z,100254.72
2019-06-10T11:56:33.452Z,100238.09
2019-06-10T11:59:03.130Z,100227.95
2019-06-10T12:01:29.187Z,100216.14
2019-06-10T12:03:58.828Z,100200.68
2019-06-10T12:06:25.638Z,100208.88
2019-06-10T12:08:55.383Z,100210.49
2019-06-10T12:11:23.187Z,100205.47
2019-06-10T12:13:57.814Z,100205.24
2019-06-10T12:17:14.817Z,100215.31
2019-06-10T12:18:54.200Z,100212.48
2019-06-10T12:21:23.686Z,100204.30
2019-06-10T12:23:55.923Z,100208.97
2019-06-10T12:26:23.419Z,100201.25
2019-06-10T12:28:54.666Z,100212.59
2019-06-10T12:31:23.177Z,100223.45
2019-06-10T12:33:55.286Z,100233.01
2019-06-10T12:36:23.703Z,100225.20
2019-06-10T12:38:53.382Z,100224.88
2019-06-10T12:41:23.040Z,100235.59
2019-06-10T12:43:50.052Z,100236.11
2019-06-10T12:46:17.544Z,100228.77
2019-06-10T12:48:47.881Z,100223.35
2019-06-10T12:51:15.168Z,100226.13
2019-06-10T12:53:43.147Z,100233.72
2019-06-10T12:56:14.556Z,100234.95
2019-06-10T12:58:42.860Z,100222.84
2019-06-10T13:01:09.215Z,100222.17
2019-06-10T13:03:36.416Z,100209.66
2019-06-10T13:06:07.147Z,100202.56
2019-06-10T13:08:34.565Z,100189.54
2019-06-10T13:11:02.210Z,100182.45
2019-06-10T13:13:29.646Z,100174.52
2019-06-10T13:15:58.115Z,100172.16
2019-06-10T13:18:25.589Z,100175.34
2019-06-10T13:20:53.751Z,100164.55
2019-06-10T13:23:29.035Z,100161.89
2019-06-10T13:25:57.290Z,100170.62
2019-06-10T13:28:22.101Z,100185.47
2019-06-10T13:30:48.921Z,100180.95
2019-06-10T13:33:16.107Z,100174.12
2019-06-10T13:35:44.263Z,100186.03
2019-06-10T13:38:11.842Z,100192.84
2019-06-10T13:40:39.242Z,100200.65
2019-06-10T13:43:06.440Z,100206.94
2019-06-10T13:45:36.182Z,100214.41
2019-06-10T13:48:07.816Z,100229.97
2019-06-10T13:50:32.916Z,100245.67
2019-06-10T13:53:01.142Z,100244.64
2019-06-10T13:55:29.528Z,100239.66
2019-06-10T13:57:57.118Z,100246.73
2019-06-10T14:00:40.459Z,100246.63
2019-06-10T14:02:53.955Z,100247.23
2019-06-10T14:05:23.649Z,100241.64
2019-06-10T14:07:52.080Z,100246.09
2019-06-10T14:10:22.501Z,100238.77
2019-06-10T14:12:49.200Z,100232.50
2019-06-10T14:15:17.210Z,100226.52
2019-06-10T14:17:44.544Z,100228.09
2019-06-10T14:20:15.291Z,100207.98
2019-06-10T14:22:42.514Z,100200.89
2019-06-10T14:25:14.125Z,100197.42
2019-06-10T14:27:42.529Z,100186.91
2019-06-10T14:30:09.803Z,100187.40
2019-06-10T14:32:37.394Z,100187.03
2019-06-10T14:35:07.026Z,100183.63
2019-06-10T14:37:39.094Z,100178.53
2019-06-10T14:40:05.754Z,100172.48
2019-06-10T14:42:33.716Z,100162.52
2019-06-10T14:45:00.935Z,100142.52
2019-06-10T14:47:28.377Z,100124.05
2019-06-10T14:49:56.875Z,100104.78
2019-06-10T14:52:24.057Z,100079.31
2019-06-10T14:54:53.206Z,100069.59
2019-06-10T14:57:22.691Z,100084.99
2019-06-10T14:59:49.445Z,100112.30
2019-06-10T15:02:17.521Z,100149.23
2019-06-10T15:04:44.697Z,100172.22
2019-06-10T15:07:13.626Z,100174.36
2019-06-10T15:09:43.145Z,100180.78
2019-06-10T15:12:10.228Z,100175.20
2019-06-10T15:14:37.444Z,100177.45
2019-06-10T15:17:04.770Z,100172.53
2019-06-10T15:19:33.285Z,100170.14
2019-06-10T15:22:02.869Z,100167.80
2019-06-10T15:24:29.908Z,100166.64
2019-06-10T15:27:09.106Z,100166.83
2019-06-10T15:29:26.395Z,100172.92
2019-06-10T15:32:09.169Z,100170.95
2019-06-10T15:34:23.148Z,100163.97
2019-06-10T15:36:52.590Z,100164.23
2019-06-10T15:39:23.789Z,100166.08
2019-06-10T15:41:48.651Z,100169.88
2019-06-10T15:44:28.421Z,100163.25
2019-06-10T15:46:44.985Z,100166.22
2019-06-10T15:49:16.378Z,100158.91
2019-06-10T15:51:43.536Z,100154.95
2019-06-10T15:54:15.374Z,100152.39
2019-06-10T15:56:48.691Z,100161.51
2019-06-10T15:59:08.888Z,100165.69
2019-06-10T16:01:36.231Z,100162.30
2019-06-10T16:04:03.518Z,100155.50
2019-06-10T16:06:32.906Z,100148.81
2019-06-10T16:09:00.285Z,100145.11
2019-06-10T16:11:27.522Z,100160.30
2019-06-10T16:13:54.707Z,100169.72
2019-06-10T16:16:23.091Z,100174.35
2019-06-10T16:18:52.421Z,100177.89
2019-06-10T16:21:20.712Z,100175.41
2019-06-10T16:23:48.960Z,100175.14
2019-06-10T16:26:16.304Z,100171.57
2019-06-10T16:28:43.663Z,100175.95
2019-06-10T16:31:13.081Z,100177.73
2019-06-10T16:33:40.126Z,100179.52
2019-06-10T16:36:07.454Z,100181.47
2019-06-10T16:38:35.245Z,100183.95
2019-06-10T16:41:03.506Z,100182.10
2019-06-10T16:43:33.461Z,100184.70
2019-06-10T16:46:00.334Z,100189.27
2019-06-10T16:48:27.556Z,100186.23
2019-06-10T16:50:54.690Z,100184.83
2019-06-10T16:53:26.744Z,100188.45
2019-06-10T16:55:52.943Z,100181.23
2019-06-10T16:58:23.343Z,100190.38
2019-06-10T17:00:49.593Z,100189.16
2019-06-10T17:03:18.352Z,100188.75
2019-06-10T17:05:45.611Z,100180.59
2019-06-10T17:08:12.878Z,100186.97
2019-06-10T17:10:40.104Z,100186.89
2019-06-10T17:13:09.227Z,100183.88
2019-06-10T17:15:36.695Z,100178.50
2019-06-10T17:18:04.113Z,100163.52
2019-06-10T17:20:34.113Z,100160.42
2019-06-10T17:23:20.898Z,100156.92
2019-06-10T17:25:50.001Z,100153.03
2019-06-10T17:28:18.590Z,100156.65
2019-06-10T17:30:46.438Z,100152.28
2019-06-10T17:33:13.717Z,100153.63
2019-06-10T17:35:43.089Z,100163.78
2019-06-10T17:38:12.232Z,100180.92
2019-06-10T17:40:39.538Z,100181.04
2019-06-10T17:43:06.701Z,100178.97
2019-06-10T17:45:33.943Z,100182.23
2019-06-10T17:48:03.099Z,100185.61
2019-06-10T17:50:32.480Z,100179.69
2019-06-10T17:52:59.234Z,100177.06
2019-06-10T17:55:27.730Z,100181.06
2019-06-10T17:57:55.765Z,100183.42
2019-06-10T18:00:24.731Z,100175.84
2019-06-10T18:02:53.599Z,100185.84
2019-06-10T18:05:22.498Z,100199.97
2019-06-10T18:07:50.052Z,100212.00
2019-06-10T18:10:17.537Z,100220.48
2019-06-10T18:12:44.637Z,100224.97
2019-06-10T18:15:12.511Z,100210.59
2019-06-10T18:17:39.812Z,100208.91
2019-06-10T18:20:07.438Z,100205.61
2019-06-10T18:22:37.031Z,100208.78
2019-06-10T18:25:04.518Z,100208.85
2019-06-10T18:27:34.089Z,100207.45
2019-06-10T18:30:02.474Z,100207.41
2019-06-10T18:32:32.463Z,100203.98
2019-06-10T18:34:59.326Z,100198.44
2019-06-10T18:37:26.612Z,100195.77
2019-06-10T18:39:53.749Z,100194.08
2019-06-10T18:42:23.601Z,100197.95
2019-06-10T18:44:52.237Z,100195.14
2019-06-10T18:47:19.598Z,100195.99
2019-06-10T18:49:46.837Z,100185.78
2019-06-10T18:52:14.434Z,100177.27
2019-06-10T18:54:43.518Z,100177.08
2019-06-10T18:57:10.891Z,100173.33
2019-06-10T18:59:39.538Z,100163.88
2019-06-10T19:02:07.177Z,100157.05
2019-06-10T19:04:36.494Z,100154.77
2019-06-10T19:07:03.783Z,100164.62
2019-06-10T19:09:33.519Z,100163.23
2019-06-10T19:12:00.094Z,100159.44
2019-06-10T19:14:27.750Z,100145.20
2019-06-10T19:16:54.944Z,100140.98
2019-06-10T19:19:22.884Z,100148.03
2019-06-10T19:22:04.665Z,100145.25
2019-06-10T19:24:25.358Z,100142.48
2019-06-10T19:26:53.139Z,100151.91
2019-06-10T19:29:32.647Z,100162.14
2019-06-10T19:31:49.642Z,100162.35
2019-06-10T19:34:17.302Z,100159.74
2019-06-10T19:36:44.535Z,100160.02
2019-06-10T19:39:13.137Z,100149.22
2019-06-10T19:41:46.652Z,100144.97
2019-06-10T19:44:09.826Z,100147.66
2019-06-10T19:46:37.752Z,100145.02
2019-06-10T19:49:07.174Z,100147.84
2019-06-10T19:51:34.712Z,100143.38
2019-06-10T19:54:03.696Z,100149.70
2019-06-10T19:56:31.529Z,100153.01
2019-06-10T19:58:58.705Z,100156.60
2019-06-10T20:01:26.027Z,100166.72
2019-06-10T20:03:53.245Z,100152.37
2019-06-10T20:06:20.750Z,100156.38
2019-06-10T20:08:47.949Z,100160.18
2019-06-10T20:11:15.307Z,100158.32
2019-06-10T20:13:43.784Z,100162.68
2019-06-10T20:16:12.161Z,100152.20
2019-06-10T20:18:40.474Z,100150.98
2019-06-10T20:21:08.142Z,100145.58
2019-06-10T20:23:35.422Z,100149.36
2019-06-10T20:26:02.801Z,100141.41
2019-06-10T20:28:32.196Z,100141.13
2019-06-10T20:30:59.377Z,100138.55
2019-06-10T20:33:37.024Z,100136.27
2019-06-10T20:36:07.572Z,100138.86
2019-06-10T20:38:33.612Z,100131.09
2019-06-10T20:41:02.684Z,100121.89
2019-06-10T20:43:32.644Z,100120.58
2019-06-10T20:45:59.415Z,100119.13
2019-06-10T20:48:26.685Z,100119.31
2019-06-10T20:50:53.813Z,100110.47
2019-06-10T20:53:21.038Z,100111.86
2019-06-10T20:55:54.453Z,100114.63
2019-06-10T20:58:17.381Z,100114.48
2019-06-10T21:00:51.039Z,100114.19
2019-06-10T21:03:14.314Z,100104.66
2019-06-10T21:05:45.659Z,100095.08
2019-06-10T21:08:14.084Z,100097.33
2019-06-10T21:10:44.686Z,100092.69
2019-06-10T21:13:12.331Z,100088.61
2019-06-10T21:15:40.570Z,100085.78
2019-06-10T21:18:09.285Z,100075.83
2019-06-10T21:20:36.358Z,100073.83
2019-06-10T21:23:03.985Z,100069.16
2019-06-10T21:25:32.463Z,100060.52
2019-06-10T21:28:02.738Z,100056.20
2019-06-10T21:30:40.708Z,100062.56
2019-06-10T21:32:59.467Z,100052.98
2019-06-10T21:35:26.716Z,100052.36
2019-06-10T21:37:53.919Z,100046.94
2019-06-10T21:40:21.176Z,100036.42
2019-06-10T21:42:48.347Z,100045.05
2019-06-10T21:45:15.747Z,100048.78
2019-06-10T21:47:44.423Z,100063.77
2019-06-10T21:50:12.541Z,100067.72
2019-06-10T21:52:40.090Z,100078.05
2019-06-10T21:55:07.406Z,100090.06
2019-06-10T21:57:35.517Z,100097.81
2019-06-10T22:00:10.632Z,100103.94
2019-06-10T22:02:34.019Z,100101.91
2019-06-10T22:05:03.379Z,100112.90
2019-06-10T22:07:32.843Z,100121.31
2019-06-10T22:10:02.347Z,100119.66
2019-06-10T22:12:29.015Z,100130.33
2019-06-10T22:14:56.322Z,100129.32
2019-06-10T22:17:23.588Z,100126.16
2019-06-10T22:19:53.177Z,100117.30
2019-06-10T22:22:19.854Z,100118.37
2019-06-10T22:24:47.086Z,100119.66
2019-06-10T22:27:14.359Z,100116.39
2019-06-10T22:29:42.678Z,100106.77
2019-06-10T22:32:12.903Z,100099.77
2019-06-10T22:34:42.123Z,100102.30
2019-06-10T22:37:09.468Z,100097.67
2019-06-10T22:39:36.788Z,100095.33
2019-06-10T22:42:04.031Z,100096.88
2019-06-10T22:44:33.083Z,100108.89
2019-06-10T22:47:02.787Z,100108.24
2019-06-10T22:49:29.676Z,100101.42
2019-06-10T22:51:58.565Z,100109.48
2019-06-10T22:54:26.151Z,100112.63
2019-06-10T22:56:56.220Z,100117.22
2019-06-10T22:59:23.023Z,100104.21
2019-06-10T23:01:53.575Z,100109.23
2019-06-10T23:04:19.408Z,100109.59
2019-06-10T23:06:46.575Z,100113.63
2019-06-10T23:09:13.910Z,100115.30
2019-06-10T23:11:42.418Z,100114.16
2019-06-10T23:14:12.250Z,100116.62
2019-06-10T23:16:38.879Z,100129.78
2019-06-10T23:19:06.038Z,100142.73
2019-06-10T23:21:33.300Z,100147.42
2019-06-10T23:24:02.964Z,100147.75
2019-06-10T23:26:29.708Z,100149.08
2019-06-10T23:28:58.502Z,100135.75
2019-06-10T23:31:25.886Z,100143.39
2019-06-10T23:33:56.256Z,100138.78
2019-06-10T23:36:23.533Z,100130.95
2019-06-10T23:38:50.961Z,100128.08
2019-06-10T23:41:18.009Z,100130.01
2019-06-10T23:43:45.306Z,100131.39
2019-06-10T23:46:12.509Z,100132.77
2019-06-10T23:48:39.685Z,100129.14
2019-06-10T23:51:06.783Z,100132.65
2019-06-10T23:53:34.434Z,100132.00
2019-06-10T23:56:04.712Z,100132.16
2019-06-10T23:58:32.872Z,100124.66
